Time;durP1;ratioP1;P1;durP2;ratioP2;P2;SDS_P1;SDS_P2;PMS_P1;PMS_P2;Temp;Humidity;BMP_temperature;BMP_pressure;BME280_temperature;BME280_humidity;BME280_pressure;Samples;Min_cycle;Max_cycle;Signal;HPM_P1;HPM_P2
2021/08/10 00:00:20;;;;;;;6.75;2.88;;;;;;;15.87;73.77;101564.16;5047231;28;20026;-70
2021/08/10 00:02:46;;;;;;;9.93;2.65;;;;;;;15.90;73.83;101571.19;5047241;28;20029;-74
2021/08/10 00:05:11;;;;;;;7.22;2.40;;;;;;;15.86;74.69;101565.06;5047002;28;20040;-73
2021/08/10 00:07:37;;;;;;;10.95;2.55;;;;;;;15.85;74.77;101565.94;5046085;28;20061;-74
2021/08/10 00:10:03;;;;;;;8.52;2.53;;;;;;;15.81;75.64;101568.66;5047007;28;20040;-74
2021/08/10 00:12:29;;;;;;;9.30;2.97;;;;;;;15.83;75.13;101569.50;5047237;28;20409;-73
2021/08/10 00:14:55;;;;;;;11.00;3.13;;;;;;;15.83;75.08;101572.16;5044486;28;20339;-73
2021/08/10 00:17:20;;;;;;;10.77;2.78;;;;;;;15.81;75.10;101561.56;5046596;28;20048;-73
2021/08/10 00:19:45;;;;;;;10.48;2.75;;;;;;;15.79;75.15;101566.03;5046478;28;20034;-73
2021/08/10 00:22:11;;;;;;;7.30;2.80;;;;;;;15.79;75.74;101564.25;5046807;28;20129;-73
2021/08/10 00:24:36;;;;;;;12.13;3.08;;;;;;;15.81;75.67;101558.94;5046975;28;20035;-73
2021/08/10 00:27:02;;;;;;;9.60;3.13;;;;;;;15.81;75.63;101563.34;5046941;28;20088;-75
2021/08/10 00:29:28;;;;;;;9.88;3.20;;;;;;;15.85;76.04;101562.41;5046889;28;20053;-75
2021/08/10 00:31:53;;;;;;;8.43;3.13;;;;;;;15.74;76.42;101562.53;5046733;28;20029;-74
2021/08/10 00:34:18;;;;;;;11.30;3.03;;;;;;;15.71;76.91;101554.59;5046626;28;20040;-74
2021/08/10 00:36:44;;;;;;;13.23;3.08;;;;;;;15.67;77.36;101556.41;5046572;28;20343;-75
2021/08/10 00:39:09;;;;;;;10.85;3.17;;;;;;;15.67;77.09;101555.50;5044419;28;20037;-73
2021/08/10 00:41:35;;;;;;;10.18;3.20;;;;;;;15.60;77.25;101552.94;5046125;28;20045;-73
2021/08/10 00:44:01;;;;;;;8.05;3.30;;;;;;;15.60;77.34;101552.06;5046717;28;20041;-75
2021/08/10 00:46:26;;;;;;;8.80;3.10;;;;;;;15.69;76.46;101553.72;5046488;28;20489;-73
2021/08/10 00:48:51;;;;;;;8.00;2.65;;;;;;;15.68;76.76;101558.16;5046334;28;20436;-75
2021/08/10 00:51:17;;;;;;;11.85;3.30;;;;;;;15.66;76.32;101551.13;5046231;28;20033;-74
2021/08/10 00:53:43;;;;;;;8.85;3.50;;;;;;;15.64;76.78;101550.28;5046265;28;20037;-72
2021/08/10 00:56:09;;;;;;;8.23;3.25;;;;;;;15.64;76.60;101558.22;5046494;28;20025;-74
2021/08/10 00:58:36;;;;;;;10.18;3.38;;;;;;;15.61;76.49;101551.16;5046212;28;20060;-74
2021/08/10 01:01:01;;;;;;;10.63;3.28;;;;;;;15.64;76.75;101544.97;5046114;28;20049;-74
2021/08/10 01:03:27;;;;;;;10.05;3.78;;;;;;;15.64;76.73;101545.84;5028400;28;20033;-74
2021/08/10 01:05:52;;;;;;;8.80;3.08;;;;;;;15.66;76.44;101545.81;5046043;28;20030;-76
2021/08/10 01:08:39;;;;;;;9.77;3.22;;;;;;;15.70;76.23;101542.25;5046052;28;20028;-74
2021/08/10 01:11:13;;;;;;;6.78;2.78;;;;;;;15.70;76.26;101544.91;5043132;28;20033;-75
2021/08/10 01:13:47;;;;;;;13.35;3.25;;;;;;;15.67;76.55;101540.53;5045910;28;20026;-74
2021/08/10 01:16:26;;;;;;;12.68;3.80;;;;;;;15.66;76.25;101546.69;5045996;28;20037;-74
2021/08/10 01:19:12;;;;;;;9.75;3.35;;;;;;;15.57;77.38;101545.03;5045511;28;20112;-74
2021/08/10 01:21:42;;;;;;;9.95;3.63;;;;;;;15.54;77.31;101545.06;5056414;28;20516;-73
2021/08/10 01:24:18;;;;;;;;;;;;;;;15.57;76.81;101549.44;5066092;28;20055;-75
2021/08/10 01:26:54;;;;;;;10.55;3.00;;;;;;;15.58;77.10;101552.09;5065477;28;19912;-74
2021/08/10 01:29:43;;;;;;;14.23;3.25;;;;;;;15.49;77.59;101552.19;5065621;28;20025;-75
2021/08/10 01:32:09;;;;;;;8.43;3.00;;;;;;;15.53;77.00;101550.38;5065437;28;20600;-74
2021/08/10 01:34:40;;;;;;;7.80;3.13;;;;;;;15.48;77.64;101552.19;5065459;28;20036;-74
2021/08/10 01:37:11;;;;;;;7.90;3.50;;;;;;;15.42;78.01;101553.13;5065578;28;20408;-74
2021/08/10 01:39:39;;;;;;;12.27;3.42;;;;;;;15.40;78.49;101553.16;5057599;28;20026;-74
2021/08/10 01:42:06;;;;;;;9.07;3.33;;;;;;;15.45;78.11;101552.25;5045004;28;20402;-76
2021/08/10 01:44:34;;;;;;;9.43;3.60;;;;;;;15.47;78.62;101553.09;5045439;28;20030;-74
2021/08/10 01:47:01;;;;;;;10.52;3.60;;;;;;;15.46;79.08;101549.56;5045413;28;20030;-70
2021/08/10 01:49:28;;;;;;;16.20;4.35;;;;;;;15.47;80.09;101553.09;5027451;28;20030;-69
2021/08/10 01:51:57;;;;;;;18.08;4.82;;;;;;;15.38;81.30;101544.34;5045237;28;20029;-69
2021/08/10 01:54:24;;;;;;;11.90;3.88;;;;;;;15.32;80.85;101551.50;5027323;28;20370;-68
2021/08/10 01:56:50;;;;;;;10.07;3.70;;;;;;;15.30;81.25;101551.50;5045231;28;20025;-69
2021/08/10 01:59:16;;;;;;;8.82;3.90;;;;;;;15.32;81.20;101562.06;5045215;28;20037;-68
2021/08/10 02:01:43;;;;;;;15.98;5.03;;;;;;;15.27;81.49;101553.28;5045133;28;20025;-72
2021/08/10 02:04:09;;;;;;;17.83;4.60;;;;;;;15.25;82.11;101555.09;5045250;28;20085;-70
2021/08/10 02:06:37;;;;;;;9.50;3.90;;;;;;;15.21;81.93;101557.75;5045298;28;20029;-70
2021/08/10 02:09:03;;;;;;;17.92;4.72;;;;;;;15.20;82.28;101558.66;5045082;28;20029;-71
2021/08/10 02:11:30;;;;;;;13.90;4.50;;;;;;;15.14;82.74;101558.72;5053719;28;20033;-71
2021/08/10 02:13:58;;;;;;;15.02;4.93;;;;;;;15.11;82.69;101566.69;5064833;28;20041;-70
2021/08/10 02:16:25;;;;;;;10.23;4.88;;;;;;;15.08;83.41;101564.03;5051059;28;20018;-70
2021/08/10 02:18:51;;;;;;;13.25;4.85;;;;;;;15.07;82.53;101562.31;5045074;28;20037;-70
2021/08/10 02:21:32;;;;;;;16.60;5.20;;;;;;;15.06;82.84;101563.19;5044842;28;20110;-70
2021/08/10 02:24:09;;;;;;;10.70;4.72;;;;;;;15.03;82.62;101568.53;5045030;28;20025;-71
2021/08/10 02:26:44;;;;;;;12.65;5.00;;;;;;;15.04;83.24;101564.09;5042272;28;20036;-72
2021/08/10 02:29:11;;;;;;;11.98;4.47;;;;;;;15.09;83.08;101557.88;5044686;28;20024;-72
2021/08/10 02:31:38;;;;;;;14.70;5.13;;;;;;;15.11;83.38;101568.47;5047055;28;20041;-72
2021/08/10 02:34:04;;;;;;;16.98;5.47;;;;;;;15.11;83.02;101564.03;5048828;28;20065;-73
2021/08/10 02:36:31;;;;;;;10.48;5.20;;;;;;;15.12;83.29;101568.44;5031082;28;20041;-71
2021/08/10 02:39:03;;;;;;;12.40;5.70;;;;;;;15.10;83.97;101562.25;5047544;28;20108;-73
2021/08/10 02:41:28;;;;;;;14.07;5.22;;;;;;;15.13;83.29;101561.38;5045888;28;20596;-73
2021/08/10 02:43:54;;;;;;;12.20;5.15;;;;;;;15.12;83.29;101567.53;5048679;28;20037;-73
2021/08/10 02:46:20;;;;;;;13.52;5.38;;;;;;;15.11;83.54;101565.81;5048640;28;20063;-72
2021/08/10 02:48:45;;;;;;;12.27;5.40;;;;;;;15.10;83.10;101562.25;5048485;28;20133;-72
2021/08/10 02:51:10;;;;;;;15.45;5.43;;;;;;;15.10;83.64;101566.69;5048390;28;20055;-73
2021/08/10 02:53:36;;;;;;;16.30;5.78;;;;;;;15.10;83.84;101569.34;5048482;28;20041;-72
2021/08/10 02:56:12;;;;;;;17.48;5.40;;;;;;;15.08;83.96;101565.81;5048815;28;20032;-72
2021/08/10 02:58:55;;;;;;;10.85;5.45;;;;;;;15.06;84.01;101557.88;5048233;28;20045;-73
2021/08/10 03:01:27;;;;;;;18.42;5.93;;;;;;;15.06;84.23;101563.19;5045433;28;20037;-72
2021/08/10 03:03:54;;;;;;;16.35;5.68;;;;;;;15.05;84.52;101564.09;5048503;28;20021;-72
2021/08/10 03:06:20;;;;;;;11.88;6.00;;;;;;;15.04;84.14;101554.38;5048403;28;20029;-72
2021/08/10 03:08:53;;;;;;;15.32;6.15;;;;;;;15.05;83.89;101564.09;5048229;28;20088;-72
2021/08/10 03:11:19;;;;;;;11.88;5.90;;;;;;;15.07;83.97;101566.72;5048052;28;20021;-71
2021/08/10 03:13:46;;;;;;;14.38;5.75;;;;;;;15.12;83.37;101570.19;5048209;28;20120;-72
2021/08/10 03:16:13;;;;;;;13.02;6.00;;;;;;;15.14;83.71;101565.75;5048412;28;20022;-73
2021/08/10 03:18:40;;;;;;;14.23;6.68;;;;;;;15.11;83.55;101565.81;5048077;28;20505;-72
2021/08/10 03:21:06;;;;;;;13.43;5.72;;;;;;;15.10;83.55;101570.19;5047893;28;20049;-73
2021/08/10 03:23:34;;;;;;;15.95;5.88;;;;;;;15.12;83.08;101565.81;5047010;28;20025;-72
2021/08/10 03:26:00;;;;;;;14.57;6.68;;;;;;;15.11;83.38;101564.03;5046798;28;20061;-73
2021/08/10 03:28:27;;;;;;;11.88;6.20;;;;;;;15.11;83.26;101573.75;5047855;28;20026;-71
2021/08/10 03:30:56;;;;;;;12.57;5.85;;;;;;;15.09;83.50;101562.31;5048140;28;20037;-71
2021/08/10 03:33:25;;;;;;;15.02;6.35;;;;;;;15.06;83.79;101563.19;5047583;28;20029;-73
2021/08/10 03:35:51;;;;;;;12.40;6.45;;;;;;;15.06;83.62;101570.25;5047765;28;20033;-72
2021/08/10 03:38:19;;;;;;;17.90;6.53;;;;;;;15.08;83.53;101568.47;5030054;28;20040;-73
2021/08/10 03:40:44;;;;;;;15.25;5.85;;;;;;;15.05;83.75;101568.47;5045111;28;20029;-73
2021/08/10 03:43:10;;;;;;;15.90;6.25;;;;;;;15.04;83.43;101572.03;5047287;28;20359;-73
2021/08/10 03:45:36;;;;;;;18.17;6.97;;;;;;;15.02;83.60;101577.34;5047404;28;20037;-72
2021/08/10 03:48:02;;;;;;;16.17;6.85;;;;;;;14.98;83.67;101572.97;5047690;28;20035;-73
2021/08/10 03:50:28;;;;;;;16.17;6.57;;;;;;;14.96;83.85;101565.03;5029801;28;20058;-72
2021/08/10 03:52:55;;;;;;;19.00;7.03;;;;;;;14.97;83.30;101577.41;5047238;28;20041;-73
2021/08/10 03:55:21;;;;;;;20.20;7.13;;;;;;;14.92;83.81;101573.91;5044624;28;20037;-73
2021/08/10 03:57:48;;;;;;;17.65;6.97;;;;;;;14.90;84.10;101577.47;5047426;28;20026;-72
2021/08/10 04:00:15;;;;;;;17.85;7.60;;;;;;;14.89;83.98;101576.56;5047525;28;20374;-74
2021/08/10 04:02:42;;;;;;;13.40;7.30;;;;;;;14.88;83.84;101572.16;5047110;28;20025;-74
2021/08/10 04:05:09;;;;;;;18.58;8.38;;;;;;;14.86;83.98;101567.75;5047069;28;20052;-73
2021/08/10 04:07:35;;;;;;;19.23;7.85;;;;;;;14.85;83.98;101582.75;5047169;28;20046;-73
2021/08/10 04:10:03;;;;;;;18.38;7.50;;;;;;;14.85;83.98;101577.47;5047122;28;20036;-72
2021/08/10 04:12:29;;;;;;;16.88;7.43;;;;;;;14.85;84.08;101582.75;5046727;28;20017;-73
2021/08/10 04:14:54;;;;;;;18.90;7.82;;;;;;;14.86;84.04;101573.06;5047365;28;20063;-72
2021/08/10 04:17:23;;;;;;;18.15;7.70;;;;;;;14.85;84.43;101577.47;5047033;28;20041;-72
2021/08/10 04:19:49;;;;;;;18.95;7.68;;;;;;;14.82;84.35;101581.03;5046907;28;20033;-72
2021/08/10 04:22:17;;;;;;;19.13;7.63;;;;;;;14.82;84.21;101575.75;5046715;28;20041;-72
2021/08/10 04:24:44;;;;;;;16.30;7.72;;;;;;;14.81;83.91;101568.69;5044808;28;20111;-71
2021/08/10 04:27:09;;;;;;;15.52;7.63;;;;;;;14.80;83.89;101566.03;5046759;28;20085;-72
2021/08/10 04:29:34;;;;;;;14.55;7.00;;;;;;;14.80;84.05;101582.81;5046811;28;20041;-73
2021/08/10 04:32:00;;;;;;;19.05;7.90;;;;;;;14.77;83.88;101576.66;5046662;28;20033;-72
2021/08/10 04:34:25;;;;;;;19.88;7.53;;;;;;;14.78;83.78;101586.34;5043950;28;20042;-72
2021/08/10 04:36:50;;;;;;;14.25;7.07;;;;;;;14.74;83.79;101581.97;5046716;28;20033;-72
2021/08/10 04:39:16;;;;;;;17.17;7.18;;;;;;;14.71;83.80;101582.88;5044522;28;20108;-73
2021/08/10 04:41:41;;;;;;;18.35;7.93;;;;;;;14.70;84.31;101585.53;5045936;28;20046;-72
2021/08/10 04:44:07;;;;;;;16.55;6.88;;;;;;;14.71;83.92;101589.94;5046499;28;20048;-73
2021/08/10 04:46:33;;;;;;;15.43;7.80;;;;;;;14.69;84.15;101586.41;5046605;28;20030;-72
2021/08/10 04:49:04;;;;;;;19.23;7.55;;;;;;;14.65;84.11;101582.03;5046398;28;20034;-72
2021/08/10 04:51:29;;;;;;;15.90;7.15;;;;;;;14.65;84.26;101579.38;5046419;28;20033;-72
2021/08/10 04:53:54;;;;;;;14.05;7.20;;;;;;;14.65;84.71;101584.66;5045474;28;20037;-74
2021/08/10 04:56:20;;;;;;;19.05;7.90;;;;;;;14.62;84.20;101578.50;5046287;28;20045;-72
2021/08/10 04:58:45;;;;;;;15.52;8.13;;;;;;;14.63;84.24;101587.34;5046331;28;20190;-72
2021/08/10 05:01:10;;;;;;;15.35;7.57;;;;;;;14.65;84.31;101584.66;5026245;28;20025;-73
2021/08/10 05:03:36;;;;;;;16.52;7.50;;;;;;;14.68;84.21;101601.41;5046024;28;20033;-73
2021/08/10 05:06:03;;;;;;;17.33;7.80;;;;;;;14.69;84.52;101599.63;5046133;28;20033;-73
2021/08/10 05:08:29;;;;;;;16.13;8.13;;;;;;;14.73;84.00;101599.63;5045961;28;20063;-73
2021/08/10 05:10:56;;;;;;;18.73;8.18;;;;;;;14.80;84.09;101598.69;5045938;28;20026;-71
2021/08/10 05:13:21;;;;;;;13.30;7.63;;;;;;;14.88;84.41;101595.97;5046101;28;20120;-73
2021/08/10 05:15:46;;;;;;;14.32;7.65;;;;;;;14.99;83.81;101590.63;5045956;28;20550;-72
2021/08/10 05:18:12;;;;;;;15.27;7.13;;;;;;;15.02;83.35;101601.16;5046045;28;20037;-71
2021/08/10 05:20:37;;;;;;;18.00;7.70;;;;;;;15.05;83.36;101594.94;5045722;28;20034;-73
2021/08/10 05:23:03;;;;;;;17.95;7.75;;;;;;;15.06;83.14;101584.34;5045573;28;20032;-72
2021/08/10 05:25:29;;;;;;;14.27;7.55;;;;;;;15.11;82.95;101594.94;5043897;28;20034;-73
2021/08/10 05:27:54;;;;;;;17.02;7.32;;;;;;;15.10;83.19;101601.97;5045791;28;20034;-72
2021/08/10 05:30:20;;;;;;;17.55;7.97;;;;;;;15.14;83.37;101597.53;5045675;28;20036;-73
2021/08/10 05:32:45;;;;;;;14.32;7.03;;;;;;;15.16;83.08;101599.28;5045716;28;20047;-73
2021/08/10 05:35:11;;;;;;;15.38;7.88;;;;;;;15.22;83.17;101593.06;5045320;28;20033;-71
2021/08/10 05:37:36;;;;;;;18.08;7.85;;;;;;;15.32;83.46;101599.16;5027717;28;20025;-73
2021/08/10 05:40:02;;;;;;;19.15;8.43;;;;;;;15.42;82.96;101602.56;5043107;28;20033;-73
2021/08/10 05:42:28;;;;;;;17.35;7.40;;;;;;;15.56;83.09;101598.91;5045305;28;20109;-74
2021/08/10 05:44:53;;;;;;;17.02;7.03;;;;;;;15.68;82.56;101611.13;5045122;28;20045;-72
2021/08/10 05:47:18;;;;;;;14.10;7.20;;;;;;;15.75;82.06;101609.34;5045319;28;20079;-72
2021/08/10 05:49:44;;;;;;;12.02;6.55;;;;;;;15.85;81.85;101610.97;5027223;28;20030;-73
2021/08/10 05:52:09;;;;;;;13.20;7.10;;;;;;;15.88;81.10;101603.00;5045137;28;20052;-71
2021/08/10 05:54:35;;;;;;;14.38;6.78;;;;;;;15.92;80.43;101594.13;5042488;28;20037;-72
2021/08/10 05:57:01;;;;;;;12.75;5.68;;;;;;;15.96;80.40;101598.50;5045261;28;20093;-71
2021/08/10 05:59:27;;;;;;;15.80;6.72;;;;;;;15.95;80.72;101602.06;5045270;28;20028;-71
2021/08/10 06:01:52;;;;;;;15.13;5.93;;;;;;;15.93;80.56;101611.75;5045142;28;20026;-72
2021/08/10 06:04:17;;;;;;;14.40;6.25;;;;;;;15.92;80.95;101607.38;5044934;28;20551;-73
2021/08/10 06:06:43;;;;;;;12.45;6.78;;;;;;;15.88;81.47;101607.41;5044401;28;20093;-71
2021/08/10 06:09:08;;;;;;;20.90;7.18;;;;;;;15.87;81.33;101605.69;5044758;28;20059;-70
2021/08/10 06:11:35;;;;;;;16.95;7.30;;;;;;;15.81;81.48;101608.41;5045028;28;20036;-68
2021/08/10 06:14:02;;;;;;;16.75;8.00;;;;;;;15.83;81.19;101593.34;5044974;28;20065;-69
2021/08/10 06:16:27;;;;;;;18.02;8.18;;;;;;;15.79;81.45;101605.75;5045195;28;20331;-69
2021/08/10 06:18:53;;;;;;;18.10;8.25;;;;;;;15.84;82.09;101600.41;5044906;28;20030;-71
2021/08/10 06:21:18;;;;;;;14.27;8.10;;;;;;;15.90;82.29;101610.94;5044922;28;20046;-70
2021/08/10 06:23:44;;;;;;;11.35;7.03;;;;;;;15.98;81.79;101612.59;5042028;28;20061;-72
2021/08/10 06:26:09;;;;;;;14.52;8.02;;;;;;;16.05;81.42;101613.41;5045036;28;20033;-74
2021/08/10 06:28:34;;;;;;;13.77;8.20;;;;;;;16.02;81.82;101609.91;5027141;28;20117;-69
2021/08/10 06:31:02;;;;;;;12.77;7.55;;;;;;;15.95;82.21;101603.81;5044909;28;20038;-71
2021/08/10 06:33:27;;;;;;;11.63;7.15;;;;;;;15.90;82.17;101610.94;5044988;28;20049;-71
2021/08/10 06:35:52;;;;;;;15.77;8.02;;;;;;;15.86;82.17;101606.56;5044763;28;20060;-71
2021/08/10 06:38:18;;;;;;;16.45;8.48;;;;;;;15.80;82.48;101615.44;5044849;28;20029;-72
2021/08/10 06:40:43;;;;;;;13.77;8.10;;;;;;;15.76;82.37;101626.97;5042222;28;20105;-72
2021/08/10 06:43:09;;;;;;;15.55;8.70;;;;;;;15.67;83.36;101624.41;5044756;28;20022;-72
2021/08/10 06:45:36;;;;;;;17.52;9.63;;;;;;;15.58;83.19;101620.09;5044672;28;20033;-75
2021/08/10 06:48:01;;;;;;;17.20;9.15;;;;;;;15.51;84.08;101624.56;5044983;28;20026;-72
2021/08/10 06:50:27;;;;;;;17.95;9.60;;;;;;;15.49;83.84;101617.53;5044716;28;20101;-70
2021/08/10 06:52:52;;;;;;;24.88;10.05;;;;;;;15.40;84.35;101634.38;5043412;28;20544;-67
2021/08/10 06:55:18;;;;;;;21.70;10.45;;;;;;;15.29;84.96;101618.59;5043177;28;20033;-69
2021/08/10 06:57:43;;;;;;;15.15;10.68;;;;;;;15.25;84.81;101626.56;5027234;28;20022;-73
2021/08/10 07:00:09;;;;;;;15.88;10.85;;;;;;;15.24;85.61;101627.47;5044641;28;20026;-71
2021/08/10 07:02:34;;;;;;;21.15;10.90;;;;;;;15.23;86.05;101633.66;5042221;28;20029;-73
2021/08/10 07:05:00;;;;;;;19.20;11.90;;;;;;;15.24;86.40;101624.81;5044217;28;20551;-73
2021/08/10 07:07:25;;;;;;;17.23;11.20;;;;;;;15.26;86.16;101625.69;5044590;28;20053;-73
2021/08/10 07:09:51;;;;;;;19.40;12.57;;;;;;;15.29;86.57;101630.94;5041443;28;20033;-71
2021/08/10 07:12:16;;;;;;;16.67;11.98;;;;;;;15.29;86.18;101629.19;5044439;28;20125;-71
2021/08/10 07:14:42;;;;;;;21.63;11.40;;;;;;;15.30;85.71;101624.75;5044446;28;20120;-71
2021/08/10 07:17:07;;;;;;;15.13;10.55;;;;;;;15.30;85.63;101635.34;5045860;28;20037;-73
2021/08/10 07:19:33;;;;;;;21.13;11.73;;;;;;;15.33;85.77;101632.66;5048230;28;20033;-72
2021/08/10 07:21:59;;;;;;;20.60;11.50;;;;;;;15.34;85.93;101626.50;5049924;28;20460;-74
2021/08/10 07:24:24;;;;;;;16.80;10.63;;;;;;;15.38;86.34;101634.38;5047598;28;20021;-75
2021/08/10 07:26:49;;;;;;;15.23;9.85;;;;;;;15.43;85.75;101634.34;5048083;28;20091;-74
2021/08/10 07:29:15;;;;;;;17.08;11.10;;;;;;;15.49;85.97;101638.72;5045592;28;20041;-74
2021/08/10 07:31:41;;;;;;;13.50;9.65;;;;;;;15.54;85.83;101637.78;5047984;28;20041;-75
2021/08/10 07:34:06;;;;;;;17.42;9.77;;;;;;;15.60;86.21;101632.41;5047847;28;20033;-71
2021/08/10 07:36:31;;;;;;;15.55;10.35;;;;;;;15.66;85.81;101633.25;5029986;28;20041;-73
2021/08/10 07:38:57;;;;;;;14.50;8.55;;;;;;;15.69;85.59;101633.19;5028541;28;20034;-75
2021/08/10 07:41:22;;;;;;;18.55;9.18;;;;;;;15.72;85.34;101643.78;5046391;28;20137;-72
2021/08/10 07:43:47;;;;;;;12.57;8.90;;;;;;;15.76;85.61;101634.94;5047729;28;20067;-73
2021/08/10 07:46:13;;;;;;;15.38;8.48;;;;;;;15.77;84.65;101644.66;5047530;28;20037;-74
2021/08/10 07:48:38;;;;;;;17.70;9.02;;;;;;;15.81;85.56;101641.06;5047691;28;20040;-73
2021/08/10 07:51:04;;;;;;;13.50;8.05;;;;;;;15.84;85.48;101646.34;5047615;28;20025;-74
2021/08/10 07:53:29;;;;;;;11.95;7.72;;;;;;;15.87;85.40;101648.94;5045887;28;20104;-76
2021/08/10 07:55:55;;;;;;;14.05;8.05;;;;;;;15.90;84.87;101648.94;5046335;28;20497;-74
2021/08/10 07:58:20;;;;;;;18.30;8.50;;;;;;;15.94;84.90;101648.00;5047616;28;20049;-75
2021/08/10 08:00:45;;;;;;;16.33;7.55;;;;;;;15.97;84.86;101647.97;5029764;28;20064;-75
2021/08/10 08:03:11;;;;;;;19.77;7.72;;;;;;;16.03;84.83;101644.38;5047140;28;20363;-75
2021/08/10 08:05:37;;;;;;;13.85;7.15;;;;;;;16.10;84.70;101647.81;5047166;28;20469;-75
2021/08/10 08:08:02;;;;;;;13.90;7.22;;;;;;;16.18;84.91;101648.59;5047098;28;20041;-74
2021/08/10 08:10:28;;;;;;;16.60;7.20;;;;;;;16.27;85.52;101645.81;5047305;28;20034;-75
2021/08/10 08:12:54;;;;;;;13.95;6.60;;;;;;;16.40;85.07;101646.56;5047356;28;20030;-76
2021/08/10 08:15:19;;;;;;;12.18;6.15;;;;;;;16.49;84.23;101642.91;5046963;28;20025;-76
2021/08/10 08:17:45;;;;;;;14.10;6.47;;;;;;;16.57;84.17;101636.59;5047132;28;20025;-75
2021/08/10 08:20:11;;;;;;;11.13;6.40;;;;;;;16.65;83.26;101636.47;5047130;28;20037;-75
2021/08/10 08:22:36;;;;;;;13.57;6.53;;;;;;;16.71;83.97;101639.06;5046697;28;20501;-75
2021/08/10 08:25:03;;;;;;;16.40;6.10;;;;;;;16.81;83.50;101638.94;5044368;28;20093;-76
2021/08/10 08:27:28;;;;;;;11.93;5.90;;;;;;;16.94;82.89;101645.84;5046715;28;20096;-76
2021/08/10 08:29:54;;;;;;;14.13;5.80;;;;;;;17.19;83.40;101642.78;5045859;28;20056;-77
2021/08/10 08:32:19;;;;;;;15.68;6.95;;;;;;;17.51;84.33;101643.09;5046951;28;20089;-76
2021/08/10 08:34:44;;;;;;;11.23;5.93;;;;;;;17.71;82.10;101639.19;5046722;28;20419;-76
2021/08/10 08:37:10;;;;;;;16.98;5.68;;;;;;;17.87;81.74;101639.84;5046659;28;20026;-76
2021/08/10 08:39:37;;;;;;;12.20;5.40;;;;;;;17.98;81.51;101645.81;5044993;28;20108;-76
2021/08/10 08:42:03;;;;;;;13.30;5.53;;;;;;;18.01;80.20;101647.53;5046329;28;20021;-76
2021/08/10 08:44:34;;;;;;;14.57;4.90;;;;;;;17.90;80.44;101655.72;5028834;28;20543;-76
2021/08/10 08:47:03;;;;;;;10.25;4.28;;;;;;;17.85;78.33;101654.94;5046400;28;20052;-75
2021/08/10 08:49:30;;;;;;;14.55;5.20;;;;;;;17.69;78.98;101657.84;5046429;28;20025;-75
2021/08/10 08:52:02;;;;;;;11.88;5.45;;;;;;;17.61;79.52;101661.53;5046403;28;20033;-73
2021/08/10 08:54:32;;;;;;;18.20;5.32;;;;;;;17.68;78.25;101658.75;5046542;28;20061;-75
2021/08/10 08:56:59;;;;;;;8.48;4.28;;;;;;;17.71;77.99;101657.81;5046288;28;20030;-74
2021/08/10 08:59:25;;;;;;;15.35;5.68;;;;;;;17.67;78.68;101658.75;5046072;28;20026;-73
2021/08/10 09:01:52;;;;;;;10.38;5.07;;;;;;;17.81;78.41;101662.06;5028441;28;20032;-74
2021/08/10 09:04:18;;;;;;;13.40;5.75;;;;;;;18.09;79.06;101662.44;5046218;28;20025;-76
2021/08/10 09:06:44;;;;;;;7.88;3.92;;;;;;;18.38;73.97;101658.28;5045858;28;20036;-76
2021/08/10 09:09:29;;;;;;;13.68;4.40;;;;;;;18.56;72.90;101659.66;5044089;28;20051;-77
2021/08/10 09:11:57;;;;;;;11.75;4.88;;;;;;;18.62;75.04;101658.66;5045536;28;20030;-74
2021/08/10 09:14:25;;;;;;;11.55;4.50;;;;;;;18.72;73.09;101662.88;5045855;28;20029;-75
2021/08/10 09:17:19;;;;;;;15.27;4.72;;;;;;;18.82;72.88;101668.91;5045747;28;20025;-75
2021/08/10 09:19:54;;;;;;;10.23;4.35;;;;;;;18.79;72.90;101667.16;5025722;28;20037;-73
2021/08/10 09:22:26;;;;;;;9.07;4.60;;;;;;;18.68;71.28;101666.53;5045701;28;20052;-74
2021/08/10 09:24:57;;;;;;;12.30;4.35;;;;;;;18.55;70.83;101675.69;5045672;28;20025;-74
2021/08/10 09:27:38;;;;;;;9.80;3.50;;;;;;;18.51;69.70;101670.44;5045722;28;20025;-77
2021/08/10 09:30:08;;;;;;;10.32;4.05;;;;;;;18.47;70.96;101670.53;5045549;28;20036;-74
2021/08/10 09:32:33;;;;;;;10.70;3.88;;;;;;;18.67;71.49;101667.41;5045751;28;20033;-75
2021/08/10 09:35:18;;;;;;;15.32;4.25;;;;;;;18.99;68.83;101671.16;5027717;28;20037;-74
2021/08/10 09:38:06;;;;;;;10.60;4.15;;;;;;;19.21;69.38;101671.53;5044759;28;20022;-75
2021/08/10 09:41:00;;;;;;;14.73;3.90;;;;;;;19.44;69.19;101679.81;5040310;28;20038;-73
2021/08/10 09:43:32;;;;;;;9.98;3.78;;;;;;;19.82;70.33;101679.78;5040807;28;20037;-74
2021/08/10 09:46:04;;;;;;;11.00;4.22;;;;;;;20.04;69.64;101678.28;5045369;28;20053;-74
2021/08/10 09:48:30;;;;;;;8.02;3.80;;;;;;;20.17;66.11;101680.56;5045006;28;20091;-75
2021/08/10 09:51:15;;;;;;;9.93;3.75;;;;;;;20.08;64.40;101689.72;5045296;28;20029;-74
2021/08/10 09:53:42;;;;;;;7.57;3.60;;;;;;;20.07;64.34;101685.31;5045024;28;20029;-77
2021/08/10 09:56:09;;;;;;;8.35;3.80;;;;;;;20.22;65.02;101676.84;5045317;28;20022;-74
2021/08/10 09:58:59;;;;;;;5.82;3.53;;;;;;;20.41;63.87;101682.53;5044628;28;20025;-75
2021/08/10 10:01:34;;;;;;;8.57;3.50;;;;;;;20.46;61.73;101677.06;5045043;28;20374;-76
2021/08/10 10:04:25;;;;;;;7.80;3.67;;;;;;;20.39;64.60;101672.84;5044912;28;20370;-77
2021/08/10 10:06:53;;;;;;;12.27;4.07;;;;;;;20.50;63.66;101677.88;5044793;28;20025;-73
2021/08/10 10:09:21;;;;;;;9.63;3.60;;;;;;;20.63;62.93;101690.81;5027049;28;20477;-77
2021/08/10 10:11:48;;;;;;;11.65;4.18;;;;;;;20.55;62.13;101683.94;5042612;28;20045;-75
2021/08/10 10:14:14;;;;;;;5.97;3.20;;;;;;;20.36;62.07;101680.91;5045090;28;20083;-76
2021/08/10 10:16:42;;;;;;;6.60;3.28;;;;;;;20.39;61.33;101686.19;5045151;28;20052;-76
2021/08/10 10:19:12;;;;;;;7.47;3.30;;;;;;;20.50;63.65;101684.06;5044983;28;20061;-76
2021/08/10 10:21:42;;;;;;;10.48;3.40;;;;;;;20.66;61.67;101681.81;5044696;28;20132;-76
2021/08/10 10:24:10;;;;;;;7.45;2.92;;;;;;;20.73;59.58;101677.19;5044902;28;20033;-78
2021/08/10 10:26:39;;;;;;;10.32;3.22;;;;;;;20.77;58.59;101671.69;5045059;28;20026;-78
2021/08/10 10:29:04;;;;;;;9.00;3.53;;;;;;;20.62;59.21;101685.53;5044781;28;20029;-78
2021/08/10 10:31:31;;;;;;;5.85;3.55;;;;;;;20.50;60.20;101685.88;5045018;28;20028;-76
2021/08/10 10:33:57;;;;;;;8.55;3.10;;;;;;;20.57;60.12;101680.31;5044757;28;20037;-77
2021/08/10 10:36:22;;;;;;;10.00;3.35;;;;;;;20.61;60.29;101683.78;5044725;28;20045;-76
2021/08/10 10:38:49;;;;;;;6.90;3.30;;;;;;;20.67;59.00;101688.06;5044452;28;20053;-77
2021/08/10 10:41:15;;;;;;;9.98;3.30;;;;;;;20.59;59.01;101678.47;5042186;28;20036;-78
2021/08/10 10:43:42;;;;;;;11.32;3.45;;;;;;;20.53;60.72;101689.31;5044711;28;20033;-77
2021/08/10 10:46:31;;;;;;;8.23;3.40;;;;;;;20.65;57.24;101690.78;5044746;28;20056;-78
2021/08/10 10:48:58;;;;;;;7.30;3.15;;;;;;;20.63;59.00;101696.16;5044595;28;20066;-78
2021/08/10 10:51:30;;;;;;;6.97;3.50;;;;;;;20.56;58.43;101691.03;5044819;28;20030;-79
2021/08/10 10:54:28;;;;;;;5.10;3.00;;;;;;;20.52;58.35;101697.38;5048332;28;20033;-80
2021/08/10 10:56:58;;;;;;;8.57;3.20;;;;;;;20.51;57.40;101695.59;5048478;28;20018;-80
2021/08/10 10:59:29;;;;;;;5.50;3.10;;;;;;;20.42;59.88;101691.44;5048177;28;20112;-79
2021/08/10 11:02:18;;;;;;;7.65;3.00;;;;;;;20.46;57.38;101698.44;5048269;28;20055;-80
2021/08/10 11:05:03;;;;;;;;;;;;;;;20.42;58.32;101688.78;5028908;28;20033;-80
2021/08/10 11:07:44;;;;;;;7.80;3.50;;;;;;;20.41;59.13;101687.00;5028330;28;19913;-79
2021/08/10 11:10:11;;;;;;;6.90;3.28;;;;;;;20.45;59.36;101694.00;5010536;28;20038;-77
2021/08/10 11:12:43;;;;;;;8.18;3.08;;;;;;;20.47;58.90;101700.16;5047954;28;20489;-79
2021/08/10 11:15:10;;;;;;;6.53;3.10;;;;;;;20.40;57.72;101694.16;5047811;28;20029;-77
2021/08/10 11:17:36;;;;;;;7.55;3.30;;;;;;;20.31;57.20;101701.56;5047908;28;20221;-77
2021/08/10 11:20:25;;;;;;;8.32;2.97;;;;;;;20.31;58.61;101698.88;5047824;28;20030;-75
2021/08/10 11:22:51;;;;;;;7.28;3.03;;;;;;;20.45;56.35;101688.66;5030094;28;20094;-76